sensor_id;sensor_type;location;lat;lon;timestamp;P1;durP1;ratioP1;P2;durP2;ratioP2
54454;SDS011;40364;52.270;10.546;2023-02-28T00:00:20;9.77;;;4.80;;
54454;SDS011;40364;52.270;10.546;2023-02-28T00:02:46;10.55;;;4.60;;
54454;SDS011;40364;52.270;10.546;2023-02-28T00:05:14;10.90;;;4.72;;
54454;SDS011;40364;52.270;10.546;2023-02-28T00:07:41;12.55;;;4.22;;
54454;SDS011;40364;52.270;10.546;2023-02-28T00:10:08;15.52;;;5.03;;
54454;SDS011;40364;52.270;10.546;2023-02-28T00:12:35;12.40;;;4.65;;
54454;SDS011;40364;52.270;10.546;2023-02-28T00:15:03;8.95;;;4.85;;
54454;SDS011;40364;52.270;10.546;2023-02-28T00:17:31;9.70;;;4.97;;
54454;SDS011;40364;52.270;10.546;2023-02-28T00:19:57;12.45;;;4.63;;
54454;SDS011;40364;52.270;10.546;2023-02-28T00:22:29;10.20;;;4.28;;
54454;SDS011;40364;52.270;10.546;2023-02-28T00:24:56;12.43;;;4.63;;
54454;SDS011;40364;52.270;10.546;2023-02-28T00:27:22;9.43;;;4.85;;
54454;SDS011;40364;52.270;10.546;2023-02-28T00:29:49;11.80;;;5.63;;
54454;SDS011;40364;52.270;10.546;2023-02-28T00:32:16;7.43;;;4.57;;
54454;SDS011;40364;52.270;10.546;2023-02-28T00:34:43;15.50;;;5.35;;
54454;SDS011;40364;52.270;10.546;2023-02-28T00:37:10;9.02;;;4.85;;
54454;SDS011;40364;52.270;10.546;2023-02-28T00:39:38;11.23;;;4.65;;
54454;SDS011;40364;52.270;10.546;2023-02-28T00:42:04;7.55;;;4.53;;
54454;SDS011;40364;52.270;10.546;2023-02-28T00:44:31;12.30;;;4.28;;
54454;SDS011;40364;52.270;10.546;2023-02-28T00:46:58;9.85;;;5.10;;
54454;SDS011;40364;52.270;10.546;2023-02-28T00:49:26;8.05;;;4.75;;
54454;SDS011;40364;52.270;10.546;2023-02-28T00:51:53;10.13;;;4.70;;
54454;SDS011;40364;52.270;10.546;2023-02-28T00:54:20;13.25;;;5.07;;
54454;SDS011;40364;52.270;10.546;2023-02-28T00:56:46;9.18;;;4.80;;
54454;SDS011;40364;52.270;10.546;2023-02-28T00:59:13;12.55;;;4.80;;
54454;SDS011;40364;52.270;10.546;2023-02-28T01:01:40;9.55;;;5.13;;
54454;SDS011;40364;52.270;10.546;2023-02-28T01:04:06;14.70;;;5.30;;
54454;SDS011;40364;52.270;10.546;2023-02-28T01:06:34;9.45;;;5.10;;
54454;SDS011;40364;52.270;10.546;2023-02-28T01:09:01;8.88;;;4.50;;
54454;SDS011;40364;52.270;10.546;2023-02-28T01:11:28;7.68;;;4.35;;
54454;SDS011;40364;52.270;10.546;2023-02-28T01:13:54;9.07;;;4.32;;
54454;SDS011;40364;52.270;10.546;2023-02-28T01:16:20;9.52;;;4.50;;
54454;SDS011;40364;52.270;10.546;2023-02-28T01:18:47;9.80;;;4.32;;
54454;SDS011;40364;52.270;10.546;2023-02-28T01:21:14;9.40;;;4.78;;
54454;SDS011;40364;52.270;10.546;2023-02-28T01:23:42;15.85;;;4.90;;
54454;SDS011;40364;52.270;10.546;2023-02-28T01:26:09;14.50;;;5.53;;
54454;SDS011;40364;52.270;10.546;2023-02-28T01:28:37;9.20;;;5.10;;
54454;SDS011;40364;52.270;10.546;2023-02-28T01:31:03;12.50;;;5.22;;
54454;SDS011;40364;52.270;10.546;2023-02-28T01:33:30;9.27;;;5.00;;
54454;SDS011;40364;52.270;10.546;2023-02-28T01:35:57;11.07;;;5.07;;
54454;SDS011;40364;52.270;10.546;2023-02-28T01:38:24;15.80;;;5.28;;
54454;SDS011;40364;52.270;10.546;2023-02-28T01:40:52;11.27;;;4.72;;
54454;SDS011;40364;52.270;10.546;2023-02-28T01:43:22;11.82;;;5.13;;
54454;SDS011;40364;52.270;10.546;2023-02-28T01:45:49;9.07;;;4.60;;
54454;SDS011;40364;52.270;10.546;2023-02-28T01:48:16;9.75;;;4.32;;
54454;SDS011;40364;52.270;10.546;2023-02-28T01:50:43;13.32;;;4.82;;
54454;SDS011;40364;52.270;10.546;2023-02-28T01:53:14;7.60;;;4.53;;
54454;SDS011;40364;52.270;10.546;2023-02-28T01:55:42;8.43;;;4.07;;
54454;SDS011;40364;52.270;10.546;2023-02-28T01:58:12;9.00;;;4.43;;
54454;SDS011;40364;52.270;10.546;2023-02-28T02:00:39;7.10;;;3.88;;
54454;SDS011;40364;52.270;10.546;2023-02-28T02:03:08;9.38;;;3.90;;
54454;SDS011;40364;52.270;10.546;2023-02-28T02:05:36;7.32;;;3.60;;
54454;SDS011;40364;52.270;10.546;2023-02-28T02:08:03;7.45;;;4.00;;
54454;SDS011;40364;52.270;10.546;2023-02-28T02:10:31;7.35;;;3.95;;
54454;SDS011;40364;52.270;10.546;2023-02-28T02:13:10;7.85;;;3.42;;
54454;SDS011;40364;52.270;10.546;2023-02-28T02:15:41;7.90;;;3.70;;
54454;SDS011;40364;52.270;10.546;2023-02-28T02:18:11;9.10;;;3.85;;
54454;SDS011;40364;52.270;10.546;2023-02-28T02:20:46;8.82;;;4.25;;
54454;SDS011;40364;52.270;10.546;2023-02-28T02:26:03;12.00;;;3.92;;
54454;SDS011;40364;52.270;10.546;2023-02-28T02:34:06;5.78;;;3.47;;
54454;SDS011;40364;52.270;10.546;2023-02-28T02:36:35;10.88;;;3.17;;
54454;SDS011;40364;52.270;10.546;2023-02-28T02:39:04;4.53;;;3.10;;
54454;SDS011;40364;52.270;10.546;2023-02-28T02:41:33;7.32;;;3.58;;
54454;SDS011;40364;52.270;10.546;2023-02-28T02:44:02;7.43;;;3.22;;
54454;SDS011;40364;52.270;10.546;2023-02-28T02:46:32;5.25;;;3.08;;
54454;SDS011;40364;52.270;10.546;2023-02-28T02:49:00;8.07;;;3.97;;
54454;SDS011;40364;52.270;10.546;2023-02-28T02:51:29;9.20;;;3.58;;
54454;SDS011;40364;52.270;10.546;2023-02-28T02:53:57;8.50;;;3.80;;
54454;SDS011;40364;52.270;10.546;2023-02-28T02:56:27;10.10;;;4.90;;
54454;SDS011;40364;52.270;10.546;2023-02-28T02:58:56;9.48;;;4.00;;
54454;SDS011;40364;52.270;10.546;2023-02-28T03:01:25;6.20;;;3.75;;
54454;SDS011;40364;52.270;10.546;2023-02-28T03:03:54;9.95;;;4.35;;
54454;SDS011;40364;52.270;10.546;2023-02-28T03:06:21;13.18;;;4.82;;
54454;SDS011;40364;52.270;10.546;2023-02-28T03:08:49;8.57;;;4.97;;
54454;SDS011;40364;52.270;10.546;2023-02-28T03:11:16;10.93;;;4.90;;
54454;SDS011;40364;52.270;10.546;2023-02-28T03:13:50;8.25;;;4.00;;
54454;SDS011;40364;52.270;10.546;2023-02-28T03:16:32;6.00;;;3.72;;
54454;SDS011;40364;52.270;10.546;2023-02-28T03:19:03;7.35;;;4.07;;
54454;SDS011;40364;52.270;10.546;2023-02-28T03:21:33;7.13;;;3.70;;
54454;SDS011;40364;52.270;10.546;2023-02-28T03:24:04;8.88;;;3.55;;
54454;SDS011;40364;52.270;10.546;2023-02-28T03:26:32;5.70;;;3.40;;
54454;SDS011;40364;52.270;10.546;2023-02-28T03:29:01;5.55;;;3.00;;
54454;SDS011;40364;52.270;10.546;2023-02-28T03:31:29;6.28;;;3.90;;
54454;SDS011;40364;52.270;10.546;2023-02-28T03:33:58;7.50;;;3.53;;
54454;SDS011;40364;52.270;10.546;2023-02-28T03:36:26;6.28;;;3.85;;
54454;SDS011;40364;52.270;10.546;2023-02-28T03:38:54;6.03;;;3.20;;
54454;SDS011;40364;52.270;10.546;2023-02-28T03:41:25;12.00;;;3.67;;
54454;SDS011;40364;52.270;10.546;2023-02-28T03:43:54;13.00;;;3.10;;
54454;SDS011;40364;52.270;10.546;2023-02-28T03:46:22;6.60;;;3.13;;
54454;SDS011;40364;52.270;10.546;2023-02-28T03:48:51;5.93;;;2.60;;
54454;SDS011;40364;52.270;10.546;2023-02-28T03:51:18;7.80;;;3.55;;
54454;SDS011;40364;52.270;10.546;2023-02-28T03:53:48;5.57;;;3.22;;
54454;SDS011;40364;52.270;10.546;2023-02-28T03:56:18;7.13;;;3.00;;
54454;SDS011;40364;52.270;10.546;2023-02-28T03:58:49;5.45;;;3.25;;
54454;SDS011;40364;52.270;10.546;2023-02-28T04:01:16;8.93;;;4.32;;
54454;SDS011;40364;52.270;10.546;2023-02-28T04:03:45;7.05;;;3.45;;
54454;SDS011;40364;52.270;10.546;2023-02-28T04:06:13;9.38;;;3.17;;
54454;SDS011;40364;52.270;10.546;2023-02-28T04:08:40;4.97;;;2.72;;
54454;SDS011;40364;52.270;10.546;2023-02-28T04:11:08;7.53;;;3.70;;
54454;SDS011;40364;52.270;10.546;2023-02-28T04:13:41;4.65;;;2.65;;
54454;SDS011;40364;52.270;10.546;2023-02-28T04:16:09;7.47;;;3.65;;
54454;SDS011;40364;52.270;10.546;2023-02-28T04:18:37;6.63;;;2.95;;
54454;SDS011;40364;52.270;10.546;2023-02-28T04:21:03;5.05;;;2.83;;
54454;SDS011;40364;52.270;10.546;2023-02-28T04:23:30;4.88;;;2.88;;
54454;SDS011;40364;52.270;10.546;2023-02-28T04:25:56;4.50;;;2.55;;
54454;SDS011;40364;52.270;10.546;2023-02-28T04:28:23;4.93;;;2.85;;
54454;SDS011;40364;52.270;10.546;2023-02-28T04:30:53;5.60;;;2.88;;
54454;SDS011;40364;52.270;10.546;2023-02-28T04:33:21;6.35;;;2.90;;
54454;SDS011;40364;52.270;10.546;2023-02-28T04:35:48;4.57;;;2.70;;
54454;SDS011;40364;52.270;10.546;2023-02-28T04:38:14;7.07;;;3.65;;
54454;SDS011;40364;52.270;10.546;2023-02-28T04:40:40;6.03;;;3.00;;
54454;SDS011;40364;52.270;10.546;2023-02-28T04:43:07;6.78;;;3.10;;
54454;SDS011;40364;52.270;10.546;2023-02-28T04:45:34;7.20;;;3.63;;
54454;SDS011;40364;52.270;10.546;2023-02-28T04:48:01;5.15;;;3.17;;
54454;SDS011;40364;52.270;10.546;2023-02-28T04:50:29;5.75;;;2.78;;
54454;SDS011;40364;52.270;10.546;2023-02-28T04:52:56;5.05;;;2.75;;
54454;SDS011;40364;52.270;10.546;2023-02-28T04:55:22;6.18;;;2.67;;
54454;SDS011;40364;52.270;10.546;2023-02-28T04:57:49;10.95;;;2.88;;
54454;SDS011;40364;52.270;10.546;2023-02-28T05:00:16;5.53;;;3.30;;
54454;SDS011;40364;52.270;10.546;2023-02-28T05:02:42;8.35;;;3.75;;
54454;SDS011;40364;52.270;10.546;2023-02-28T05:05:08;6.60;;;3.50;;
54454;SDS011;40364;52.270;10.546;2023-02-28T05:07:36;7.95;;;3.55;;
54454;SDS011;40364;52.270;10.546;2023-02-28T05:10:03;8.88;;;3.33;;
54454;SDS011;40364;52.270;10.546;2023-02-28T05:12:30;8.52;;;3.40;;
54454;SDS011;40364;52.270;10.546;2023-02-28T05:14:56;6.43;;;3.78;;
54454;SDS011;40364;52.270;10.546;2023-02-28T05:17:23;4.47;;;2.67;;
54454;SDS011;40364;52.270;10.546;2023-02-28T05:19:49;7.70;;;3.38;;
54454;SDS011;40364;52.270;10.546;2023-02-28T05:22:16;6.07;;;3.05;;
54454;SDS011;40364;52.270;10.546;2023-02-28T05:24:44;5.25;;;3.08;;
54454;SDS011;40364;52.270;10.546;2023-02-28T05:27:10;5.63;;;2.90;;
54454;SDS011;40364;52.270;10.546;2023-02-28T05:29:37;7.90;;;3.22;;
54454;SDS011;40364;52.270;10.546;2023-02-28T05:32:08;8.30;;;3.28;;
54454;SDS011;40364;52.270;10.546;2023-02-28T05:34:34;6.70;;;2.95;;
54454;SDS011;40364;52.270;10.546;2023-02-28T05:37:02;8.32;;;3.10;;
54454;SDS011;40364;52.270;10.546;2023-02-28T05:39:28;8.52;;;3.38;;
54454;SDS011;40364;52.270;10.546;2023-02-28T05:41:56;7.85;;;3.10;;
54454;SDS011;40364;52.270;10.546;2023-02-28T05:44:22;7.18;;;3.17;;
54454;SDS011;40364;52.270;10.546;2023-02-28T05:46:49;5.22;;;2.90;;
54454;SDS011;40364;52.270;10.546;2023-02-28T05:49:15;8.27;;;3.28;;
54454;SDS011;40364;52.270;10.546;2023-02-28T05:51:42;7.57;;;3.10;;
54454;SDS011;40364;52.270;10.546;2023-02-28T05:54:08;9.68;;;3.50;;
54454;SDS011;40364;52.270;10.546;2023-02-28T05:56:35;6.10;;;3.25;;
54454;SDS011;40364;52.270;10.546;2023-02-28T05:59:05;5.78;;;2.75;;
54454;SDS011;40364;52.270;10.546;2023-02-28T06:01:32;10.32;;;3.38;;
54454;SDS011;40364;52.270;10.546;2023-02-28T06:04:00;5.00;;;3.42;;
54454;SDS011;40364;52.270;10.546;2023-02-28T06:06:26;5.50;;;2.85;;
54454;SDS011;40364;52.270;10.546;2023-02-28T06:08:53;6.32;;;3.22;;
54454;SDS011;40364;52.270;10.546;2023-02-28T06:11:19;6.80;;;3.35;;
54454;SDS011;40364;52.270;10.546;2023-02-28T06:13:46;8.63;;;3.58;;
54454;SDS011;40364;52.270;10.546;2023-02-28T06:16:14;4.70;;;3.08;;
54454;SDS011;40364;52.270;10.546;2023-02-28T06:18:40;10.07;;;3.13;;
54454;SDS011;40364;52.270;10.546;2023-02-28T06:21:07;7.22;;;3.53;;
54454;SDS011;40364;52.270;10.546;2023-02-28T06:23:33;7.60;;;3.40;;
54454;SDS011;40364;52.270;10.546;2023-02-28T06:26:00;5.57;;;3.25;;
54454;SDS011;40364;52.270;10.546;2023-02-28T06:28:27;7.05;;;3.53;;
54454;SDS011;40364;52.270;10.546;2023-02-28T06:30:53;9.15;;;3.53;;
54454;SDS011;40364;52.270;10.546;2023-02-28T06:33:21;7.55;;;3.28;;
54454;SDS011;40364;52.270;10.546;2023-02-28T06:35:49;6.88;;;3.47;;
54454;SDS011;40364;52.270;10.546;2023-02-28T06:38:16;6.22;;;3.53;;
54454;SDS011;40364;52.270;10.546;2023-02-28T06:40:43;10.18;;;4.10;;
54454;SDS011;40364;52.270;10.546;2023-02-28T06:43:09;8.13;;;3.72;;
54454;SDS011;40364;52.270;10.546;2023-02-28T06:45:40;6.60;;;3.58;;
54454;SDS011;40364;52.270;10.546;2023-02-28T06:48:07;6.60;;;3.65;;
54454;SDS011;40364;52.270;10.546;2023-02-28T06:50:35;5.40;;;3.17;;
54454;SDS011;40364;52.270;10.546;2023-02-28T06:53:01;9.80;;;3.83;;
54454;SDS011;40364;52.270;10.546;2023-02-28T06:55:28;8.73;;;3.42;;
54454;SDS011;40364;52.270;10.546;2023-02-28T06:57:54;7.45;;;3.15;;
54454;SDS011;40364;52.270;10.546;2023-02-28T07:00:21;5.60;;;3.25;;
54454;SDS011;40364;52.270;10.546;2023-02-28T07:02:47;6.45;;;2.90;;
54454;SDS011;40364;52.270;10.546;2023-02-28T07:05:14;5.03;;;3.20;;
54454;SDS011;40364;52.270;10.546;2023-02-28T07:07:42;5.43;;;3.17;;
54454;SDS011;40364;52.270;10.546;2023-02-28T07:10:10;6.32;;;3.28;;
54454;SDS011;40364;52.270;10.546;2023-02-28T07:12:37;5.43;;;3.05;;
54454;SDS011;40364;52.270;10.546;2023-02-28T07:15:04;5.80;;;2.83;;
54454;SDS011;40364;52.270;10.546;2023-02-28T07:17:31;6.57;;;2.92;;
54454;SDS011;40364;52.270;10.546;2023-02-28T07:19:58;5.78;;;3.22;;
54454;SDS011;40364;52.270;10.546;2023-02-28T07:22:24;5.10;;;2.95;;
54454;SDS011;40364;52.270;10.546;2023-02-28T07:24:52;9.32;;;3.35;;
54454;SDS011;40364;52.270;10.546;2023-02-28T07:27:19;7.13;;;3.13;;
54454;SDS011;40364;52.270;10.546;2023-02-28T07:29:50;6.35;;;2.88;;
54454;SDS011;40364;52.270;10.546;2023-02-28T07:32:16;4.53;;;2.63;;
54454;SDS011;40364;52.270;10.546;2023-02-28T07:34:43;3.30;;;2.28;;
54454;SDS011;40364;52.270;10.546;2023-02-28T07:37:09;4.80;;;2.30;;
54454;SDS011;40364;52.270;10.546;2023-02-28T07:39:36;3.85;;;2.38;;
54454;SDS011;40364;52.270;10.546;2023-02-28T07:42:05;6.68;;;2.90;;
54454;SDS011;40364;52.270;10.546;2023-02-28T07:44:34;3.53;;;1.95;;
54454;SDS011;40364;52.270;10.546;2023-02-28T07:47:05;2.17;;;1.75;;
54454;SDS011;40364;52.270;10.546;2023-02-28T07:49:31;3.75;;;2.40;;
54454;SDS011;40364;52.270;10.546;2023-02-28T07:51:58;5.18;;;2.35;;
54454;SDS011;40364;52.270;10.546;2023-02-28T07:54:24;2.67;;;1.63;;
54454;SDS011;40364;52.270;10.546;2023-02-28T07:56:50;5.40;;;2.20;;
54454;SDS011;40364;52.270;10.546;2023-02-28T07:59:18;3.22;;;2.17;;
54454;SDS011;40364;52.270;10.546;2023-02-28T08:01:45;4.82;;;2.50;;
54454;SDS011;40364;52.270;10.546;2023-02-28T08:04:11;4.30;;;2.58;;
54454;SDS011;40364;52.270;10.546;2023-02-28T08:06:37;4.10;;;2.20;;
54454;SDS011;40364;52.270;10.546;2023-02-28T08:09:04;5.63;;;2.42;;
54454;SDS011;40364;52.270;10.546;2023-02-28T08:11:31;3.80;;;2.00;;
54454;SDS011;40364;52.270;10.546;2023-02-28T08:13:57;8.35;;;2.40;;
54454;SDS011;40364;52.270;10.546;2023-02-28T08:16:25;3.13;;;2.10;;
54454;SDS011;40364;52.270;10.546;2023-02-28T08:18:52;4.93;;;2.50;;
54454;SDS011;40364;52.270;10.546;2023-02-28T08:21:19;5.93;;;2.63;;
54454;SDS011;40364;52.270;10.546;2023-02-28T08:23:46;10.50;;;2.72;;
54454;SDS011;40364;52.270;10.546;2023-02-28T08:26:13;7.40;;;2.70;;
54454;SDS011;40364;52.270;10.546;2023-02-28T08:28:40;5.15;;;2.65;;
54454;SDS011;40364;52.270;10.546;2023-02-28T08:31:08;4.45;;;2.72;;
54454;SDS011;40364;52.270;10.546;2023-02-28T08:33:36;5.97;;;2.92;;
54454;SDS011;40364;52.270;10.546;2023-02-28T08:36:04;6.07;;;3.10;;
54454;SDS011;40364;52.270;10.546;2023-02-28T08:38:31;4.47;;;2.30;;
54454;SDS011;40364;52.270;10.546;2023-02-28T08:40:57;5.35;;;3.03;;
54454;SDS011;40364;52.270;10.546;2023-02-28T08:43:24;8.32;;;2.88;;
54454;SDS011;40364;52.270;10.546;2023-02-28T08:45:51;8.07;;;2.58;;
54454;SDS011;40364;52.270;10.546;2023-02-28T08:48:17;6.82;;;2.47;;
54454;SDS011;40364;52.270;10.546;2023-02-28T08:50:45;5.35;;;2.67;;
54454;SDS011;40364;52.270;10.546;2023-02-28T08:53:20;3.38;;;2.17;;
54454;SDS011;40364;52.270;10.546;2023-02-28T08:55:46;4.90;;;2.33;;
54454;SDS011;40364;52.270;10.546;2023-02-28T08:58:13;8.70;;;2.97;;
54454;SDS011;40364;52.270;10.546;2023-02-28T09:00:39;3.45;;;2.35;;
54454;SDS011;40364;52.270;10.546;2023-02-28T09:03:06;4.95;;;2.80;;
54454;SDS011;40364;52.270;10.546;2023-02-28T09:05:32;3.00;;;2.03;;
54454;SDS011;40364;52.270;10.546;2023-02-28T09:08:00;4.97;;;2.10;;
54454;SDS011;40364;52.270;10.546;2023-02-28T09:10:26;6.18;;;2.38;;
54454;SDS011;40364;52.270;10.546;2023-02-28T09:12:53;4.45;;;2.50;;
54454;SDS011;40364;52.270;10.546;2023-02-28T09:15:19;4.18;;;2.08;;
54454;SDS011;40364;52.270;10.546;2023-02-28T09:17:46;4.80;;;2.03;;
54454;SDS011;40364;52.270;10.546;2023-02-28T09:20:12;6.07;;;2.20;;
54454;SDS011;40364;52.270;10.546;2023-02-28T09:22:38;4.90;;;2.20;;
54454;SDS011;40364;52.270;10.546;2023-02-28T09:25:06;5.80;;;2.42;;
54454;SDS011;40364;52.270;10.546;2023-02-28T09:27:33;6.15;;;2.38;;
54454;SDS011;40364;52.270;10.546;2023-02-28T09:29:59;4.53;;;2.30;;
54454;SDS011;40364;52.270;10.546;2023-02-28T09:32:26;4.13;;;2.33;;
54454;SDS011;40364;52.270;10.546;2023-02-28T09:34:52;4.65;;;2.40;;
54454;SDS011;40364;52.270;10.546;2023-02-28T09:37:19;3.42;;;2.20;;
54454;SDS011;40364;52.270;10.546;2023-02-28T09:39:45;6.20;;;2.58;;
54454;SDS011;40364;52.270;10.546;2023-02-28T09:42:17;4.20;;;2.60;;
54454;SDS011;40364;52.270;10.546;2023-02-28T09:44:44;3.97;;;2.25;;
54454;SDS011;40364;52.270;10.546;2023-02-28T09:47:14;5.75;;;2.33;;
54454;SDS011;40364;52.270;10.546;2023-02-28T09:49:45;6.05;;;2.85;;
54454;SDS011;40364;52.270;10.546;2023-02-28T09:52:14;4.70;;;2.30;;
54454;SDS011;40364;52.270;10.546;2023-02-28T09:54:43;4.00;;;2.40;;
54454;SDS011;40364;52.270;10.546;2023-02-28T09:57:14;2.90;;;1.90;;
54454;SDS011;40364;52.270;10.546;2023-02-28T09:59:48;6.43;;;2.53;;
54454;SDS011;40364;52.270;10.546;2023-02-28T10:02:24;3.05;;;1.75;;
54454;SDS011;40364;52.270;10.546;2023-02-28T10:04:56;3.20;;;1.80;;
54454;SDS011;40364;52.270;10.546;2023-02-28T10:07:30;3.28;;;1.83;;
54454;SDS011;40364;52.270;10.546;2023-02-28T10:10:03;2.95;;;1.58;;
54454;SDS011;40364;52.270;10.546;2023-02-28T10:12:30;4.03;;;1.63;;
54454;SDS011;40364;52.270;10.546;2023-02-28T10:14:59;3.60;;;1.40;;
54454;SDS011;40364;52.270;10.546;2023-02-28T10:17:29;6.03;;;1.92;;
54454;SDS011;40364;52.270;10.546;2023-02-28T10:19:58;3.58;;;2.00;;
54454;SDS011;40364;52.270;10.546;2023-02-28T10:22:33;3.50;;;1.60;;
54454;SDS011;40364;52.270;10.546;2023-02-28T10:25:00;4.43;;;1.80;;
54454;SDS011;40364;52.270;10.546;2023-02-28T10:27:29;3.83;;;1.85;;
54454;SDS011;40364;52.270;10.546;2023-02-28T10:29:56;5.05;;;2.08;;
54454;SDS011;40364;52.270;10.546;2023-02-28T10:32:24;4.65;;;1.52;;
54454;SDS011;40364;52.270;10.546;2023-02-28T10:34:53;2.70;;;1.75;;
54454;SDS011;40364;52.270;10.546;2023-02-28T10:37:22;4.28;;;1.95;;
54454;SDS011;40364;52.270;10.546;2023-02-28T10:39:49;3.78;;;2.30;;
54454;SDS011;40364;52.270;10.546;2023-02-28T10:42:20;1.27;;;0.95;;
54454;SDS011;40364;52.270;10.546;2023-02-28T10:44:47;3.95;;;1.48;;
54454;SDS011;40364;52.270;10.546;2023-02-28T10:47:14;3.03;;;1.05;;
54454;SDS011;40364;52.270;10.546;2023-02-28T10:49:47;2.13;;;1.13;;
54454;SDS011;40364;52.270;10.546;2023-02-28T10:52:13;1.80;;;0.88;;
54454;SDS011;40364;52.270;10.546;2023-02-28T10:55:13;3.55;;;1.38;;
54454;SDS011;40364;52.270;10.546;2023-02-28T10:57:40;2.42;;;1.58;;
54454;SDS011;40364;52.270;10.546;2023-02-28T11:00:12;2.45;;;1.17;;
54454;SDS011;40364;52.270;10.546;2023-02-28T11:02:40;2.00;;;1.40;;
54454;SDS011;40364;52.270;10.546;2023-02-28T11:07:52;3.17;;;1.70;;
54454;SDS011;40364;52.270;10.546;2023-02-28T11:10:20;1.95;;;1.10;;
54454;SDS011;40364;52.270;10.546;2023-02-28T11:12:47;2.75;;;1.50;;
54454;SDS011;40364;52.270;10.546;2023-02-28T11:15:19;3.80;;;1.38;;
54454;SDS011;40364;52.270;10.546;2023-02-28T11:17:52;2.50;;;1.70;;
54454;SDS011;40364;52.270;10.546;2023-02-28T11:20:20;4.47;;;1.70;;
54454;SDS011;40364;52.270;10.546;2023-02-28T11:22:48;2.63;;;1.60;;
54454;SDS011;40364;52.270;10.546;2023-02-28T11:25:19;3.17;;;1.20;;
54454;SDS011;40364;52.270;10.546;2023-02-28T11:27:47;2.25;;;1.42;;
54454;SDS011;40364;52.270;10.546;2023-02-28T11:30:31;4.32;;;1.67;;
54454;SDS011;40364;52.270;10.546;2023-02-28T11:32:59;2.38;;;1.45;;
54454;SDS011;40364;52.270;10.546;2023-02-28T11:35:27;3.85;;;1.48;;
54454;SDS011;40364;52.270;10.546;2023-02-28T11:37:54;3.47;;;1.58;;
54454;SDS011;40364;52.270;10.546;2023-02-28T11:40:24;2.10;;;1.40;;
54454;SDS011;40364;52.270;10.546;2023-02-28T11:42:55;2.15;;;1.10;;
54454;SDS011;40364;52.270;10.546;2023-02-28T11:45:31;2.78;;;1.58;;
54454;SDS011;40364;52.270;10.546;2023-02-28T11:48:01;2.00;;;1.25;;
54454;SDS011;40364;52.270;10.546;2023-02-28T11:50:39;4.32;;;1.48;;
54454;SDS011;40364;52.270;10.546;2023-02-28T11:53:10;2.97;;;1.40;;
54454;SDS011;40364;52.270;10.546;2023-02-28T11:55:41;2.55;;;1.55;;
54454;SDS011;40364;52.270;10.546;2023-02-28T11:58:17;2.30;;;1.45;;
54454;SDS011;40364;52.270;10.546;2023-02-28T12:00:52;2.75;;;1.42;;
54454;SDS011;40364;52.270;10.546;2023-02-28T12:03:26;3.67;;;1.75;;
54454;SDS011;40364;52.270;10.546;2023-02-28T12:05:56;3.15;;;1.48;;
54454;SDS011;40364;52.270;10.546;2023-02-28T12:08:26;2.03;;;1.30;;
54454;SDS011;40364;52.270;10.546;2023-02-28T12:11:03;3.22;;;1.73;;
54454;SDS011;40364;52.270;10.546;2023-02-28T12:13:35;2.65;;;1.63;;
54454;SDS011;40364;52.270;10.546;2023-02-28T12:16:17;2.85;;;1.30;;
54454;SDS011;40364;52.270;10.546;2023-02-28T12:18:51;2.72;;;1.45;;
54454;SDS011;40364;52.270;10.546;2023-02-28T12:21:21;2.30;;;1.55;;
54454;SDS011;40364;52.270;10.546;2023-02-28T12:23:55;4.15;;;1.58;;
54454;SDS011;40364;52.270;10.546;2023-02-28T12:26:25;3.42;;;1.45;;
54454;SDS011;40364;52.270;10.546;2023-02-28T12:28:57;2.22;;;1.50;;
54454;SDS011;40364;52.270;10.546;2023-02-28T12:31:26;3.17;;;1.92;;
54454;SDS011;40364;52.270;10.546;2023-02-28T12:33:55;2.90;;;1.75;;
54454;SDS011;40364;52.270;10.546;2023-02-28T12:36:23;2.47;;;1.40;;
54454;SDS011;40364;52.270;10.546;2023-02-28T12:38:52;2.67;;;1.42;;
54454;SDS011;40364;52.270;10.546;2023-02-28T12:41:20;3.65;;;1.73;;
54454;SDS011;40364;52.270;10.546;2023-02-28T12:43:51;3.17;;;1.40;;
54454;SDS011;40364;52.270;10.546;2023-02-28T12:46:19;4.95;;;1.83;;
54454;SDS011;40364;52.270;10.546;2023-02-28T12:48:48;2.15;;;1.50;;
54454;SDS011;40364;52.270;10.546;2023-02-28T12:51:15;5.28;;;1.70;;
54454;SDS011;40364;52.270;10.546;2023-02-28T12:53:48;1.58;;;1.27;;
54454;SDS011;40364;52.270;10.546;2023-02-28T12:56:16;2.17;;;1.70;;
54454;SDS011;40364;52.270;10.546;2023-02-28T12:58:45;2.33;;;1.60;;
54454;SDS011;40364;52.270;10.546;2023-02-28T13:01:24;1.77;;;1.30;;
54454;SDS011;40364;52.270;10.546;2023-02-28T13:04:05;1.90;;;1.40;;
54454;SDS011;40364;52.270;10.546;2023-02-28T13:06:52;2.25;;;1.50;;
54454;SDS011;40364;52.270;10.546;2023-02-28T13:11:50;2.05;;;1.20;;
54454;SDS011;40364;52.270;10.546;2023-02-28T13:14:22;2.33;;;1.40;;
54454;SDS011;40364;52.270;10.546;2023-02-28T13:16:56;4.13;;;1.83;;
54454;SDS011;40364;52.270;10.546;2023-02-28T13:19:23;2.30;;;1.60;;
54454;SDS011;40364;52.270;10.546;2023-02-28T13:21:50;3.08;;;1.30;;
54454;SDS011;40364;52.270;10.546;2023-02-28T13:24:36;2.80;;;1.58;;
54454;SDS011;40364;52.270;10.546;2023-02-28T13:29:56;4.10;;;2.00;;
54454;SDS011;40364;52.270;10.546;2023-02-28T13:38:31;2.53;;;1.58;;
54454;SDS011;40364;52.270;10.546;2023-02-28T13:44:01;2.25;;;1.75;;
54454;SDS011;40364;52.270;10.546;2023-02-28T13:46:28;4.22;;;2.08;;
54454;SDS011;40364;52.270;10.546;2023-02-28T13:48:54;3.05;;;1.67;;
54454;SDS011;40364;52.270;10.546;2023-02-28T13:51:28;3.25;;;2.05;;
54454;SDS011;40364;52.270;10.546;2023-02-28T13:54:05;2.88;;;1.75;;
54454;SDS011;40364;52.270;10.546;2023-02-28T13:56:35;5.15;;;2.88;;
54454;SDS011;40364;52.270;10.546;2023-02-28T13:59:06;2.33;;;1.60;;
54454;SDS011;40364;52.270;10.546;2023-02-28T14:01:43;4.05;;;2.33;;
54454;SDS011;40364;52.270;10.546;2023-02-28T14:06:55;2.25;;;1.50;;
54454;SDS011;40364;52.270;10.546;2023-02-28T14:09:25;3.90;;;2.00;;
54454;SDS011;40364;52.270;10.546;2023-02-28T14:11:52;3.35;;;1.73;;
54454;SDS011;40364;52.270;10.546;2023-02-28T14:17:00;3.47;;;1.98;;
54454;SDS011;40364;52.270;10.546;2023-02-28T14:19:28;4.60;;;2.17;;
54454;SDS011;40364;52.270;10.546;2023-02-28T14:22:00;3.80;;;2.25;;
54454;SDS011;40364;52.270;10.546;2023-02-28T14:27:28;3.28;;;1.70;;
54454;SDS011;40364;52.270;10.546;2023-02-28T14:30:10;2.45;;;1.70;;
54454;SDS011;40364;52.270;10.546;2023-02-28T14:32:40;5.05;;;2.45;;
54454;SDS011;40364;52.270;10.546;2023-02-28T14:35:13;3.65;;;1.60;;
54454;SDS011;40364;52.270;10.546;2023-02-28T14:37:42;2.30;;;1.77;;
54454;SDS011;40364;52.270;10.546;2023-02-28T14:40:12;3.10;;;1.90;;
54454;SDS011;40364;52.270;10.546;2023-02-28T14:42:45;5.60;;;1.80;;
54454;SDS011;40364;52.270;10.546;2023-02-28T14:45:17;4.57;;;1.90;;
54454;SDS011;40364;52.270;10.546;2023-02-28T14:47:43;5.53;;;2.00;;
54454;SDS011;40364;52.270;10.546;2023-02-28T14:50:17;3.08;;;1.90;;
54454;SDS011;40364;52.270;10.546;2023-02-28T14:52:43;3.28;;;2.00;;
54454;SDS011;40364;52.270;10.546;2023-02-28T14:55:12;5.15;;;1.80;;
54454;SDS011;40364;52.270;10.546;2023-02-28T14:57:43;5.18;;;3.13;;
54454;SDS011;40364;52.270;10.546;2023-02-28T15:02:42;1.77;;;1.30;;
54454;SDS011;40364;52.270;10.546;2023-02-28T15:08:04;4.43;;;2.17;;
54454;SDS011;40364;52.270;10.546;2023-02-28T15:10:31;4.28;;;2.17;;
54454;SDS011;40364;52.270;10.546;2023-02-28T15:12:59;3.88;;;2.13;;
54454;SDS011;40364;52.270;10.546;2023-02-28T15:15:27;4.70;;;2.75;;
54454;SDS011;40364;52.270;10.546;2023-02-28T15:17:59;3.47;;;2.00;;
54454;SDS011;40364;52.270;10.546;2023-02-28T15:20:27;7.50;;;2.22;;